createdAt,value
2023-05-27T00:04:36.974Z,8.20
2023-05-27T00:08:29.030Z,8.20
2023-05-27T00:12:11.791Z,8.30
2023-05-27T00:23:52.936Z,8.50
2023-05-27T00:27:24.230Z,8.80
2023-05-27T00:31:14.173Z,8.20
2023-05-27T00:35:07.011Z,8.60
2023-05-27T00:38:53.124Z,8.10
2023-05-27T00:54:16.793Z,10.20
2023-05-27T00:57:42.069Z,9.70
2023-05-27T01:01:34.607Z,11.40
2023-05-27T01:13:42.948Z,12.00
2023-05-27T01:17:36.491Z,11.10
2023-05-27T01:21:28.966Z,12.90
2023-05-27T01:25:11.197Z,11.80
2023-05-27T01:52:25.318Z,11.10
2023-05-27T01:56:00.136Z,10.10
2023-05-27T01:59:42.998Z,9.90
2023-05-27T02:29:33.292Z,14.00
2023-05-27T02:33:14.840Z,12.10
2023-05-27T02:36:28.819Z,11.70
2023-05-27T02:40:19.897Z,11.20
2023-05-27T03:02:02.202Z,10.80
2023-05-27T03:05:55.598Z,10.40
2023-05-27T03:09:46.898Z,10.70
2023-05-27T03:13:41.127Z,10.50
2023-05-27T03:29:03.110Z,9.50
2023-05-27T03:32:48.508Z,9.60
2023-05-27T03:36:42.116Z,9.60
2023-05-27T03:55:22.328Z,10.70
2023-05-27T03:59:15.782Z,10.10
2023-05-27T04:03:03.964Z,12.50
2023-05-27T04:07:06.384Z,13.00
2023-05-27T04:22:00.066Z,10.30
2023-05-27T04:25:52.068Z,10.50
2023-05-27T04:52:23.419Z,15.20
2023-05-27T04:55:58.921Z,15.20
2023-05-27T04:59:44.232Z,15.70
2023-05-27T05:03:02.963Z,13.70
2023-05-27T05:52:21.109Z,8.30
2023-05-27T05:55:26.345Z,9.30
2023-05-27T05:58:37.417Z,9.00
2023-05-27T06:04:27.397Z,7.50
2023-05-27T06:07:29.983Z,8.10
2023-05-27T06:10:26.121Z,7.20
2023-05-27T06:13:29.302Z,8.20
2023-05-27T06:16:14.462Z,8.80
2023-05-27T06:19:08.532Z,8.50
2023-05-27T06:22:10.967Z,9.00
2023-05-27T06:25:22.227Z,9.30
2023-05-27T06:28:28.298Z,8.00
2023-05-27T06:31:29.543Z,7.70
2023-05-27T06:34:20.297Z,7.90
2023-05-27T06:37:00.895Z,8.30
2023-05-27T06:39:35.377Z,7.80
2023-05-27T06:42:16.710Z,8.40
2023-05-27T06:45:14.546Z,7.80
2023-05-27T06:47:55.230Z,7.40
2023-05-27T06:50:38.745Z,7.30
2023-05-27T06:53:12.242Z,7.20
2023-05-27T06:56:29.891Z,7.70
2023-05-27T06:59:35.512Z,7.20
2023-05-27T07:02:16.308Z,7.20
2023-05-27T07:04:52.167Z,7.30
2023-05-27T07:07:26.212Z,6.80
2023-05-27T07:10:12.216Z,7.20
2023-05-27T07:12:51.956Z,7.70
2023-05-27T07:15:35.710Z,7.40
2023-05-27T07:18:14.741Z,6.70
2023-05-27T07:20:46.808Z,7.50
2023-05-27T07:23:27.828Z,6.80
2023-05-27T07:26:08.546Z,7.60
2023-05-27T07:28:41.652Z,6.60
2023-05-27T07:31:26.648Z,6.50
2023-05-27T07:34:00.664Z,6.70
2023-05-27T07:36:37.573Z,7.10
2023-05-27T07:39:17.336Z,7.10
2023-05-27T07:41:54.259Z,7.10
2023-05-27T07:44:34.644Z,6.90
2023-05-27T07:47:14.840Z,6.20
2023-05-27T07:50:16.768Z,6.50
2023-05-27T07:52:57.946Z,6.10
2023-05-27T07:55:50.898Z,5.40
2023-05-27T07:58:22.037Z,6.10
2023-05-27T08:03:35.436Z,5.90
2023-05-27T08:06:29.633Z,6.20
2023-05-27T08:09:20.393Z,7.10
2023-05-27T08:12:14.666Z,6.60
2023-05-27T08:14:57.714Z,5.80
2023-05-27T08:18:05.090Z,6.20
2023-05-27T08:20:55.537Z,6.00
2023-05-27T08:23:56.660Z,5.80
2023-05-27T08:26:46.298Z,6.20
2023-05-27T08:29:29.466Z,5.70
2023-05-27T08:32:19.504Z,5.80
2023-05-27T08:34:55.190Z,5.70
2023-05-27T08:37:24.949Z,6.00
2023-05-27T08:40:08.149Z,6.10
2023-05-27T08:42:50.312Z,5.90
2023-05-27T08:45:31.968Z,5.60
2023-05-27T08:48:04.094Z,6.30
2023-05-27T08:50:40.676Z,6.10
2023-05-27T08:53:12.459Z,6.00
2023-05-27T08:55:44.652Z,7.00
2023-05-27T08:58:17.171Z,6.00
2023-05-27T09:00:52.375Z,6.10
2023-05-27T09:03:25.886Z,6.40
2023-05-27T09:06:00.197Z,5.30
2023-05-27T09:08:49.062Z,6.20
2023-05-27T09:11:37.653Z,6.40
2023-05-27T09:14:08.084Z,5.90
2023-05-27T09:16:44.836Z,6.40
2023-05-27T09:19:22.767Z,5.80
2023-05-27T09:21:56.452Z,6.20
2023-05-27T09:24:27.788Z,6.50
2023-05-27T09:27:07.907Z,6.20
2023-05-27T09:29:42.197Z,5.90
2023-05-27T09:32:12.512Z,6.50
2023-05-27T09:34:43.151Z,6.10
2023-05-27T09:37:20.617Z,5.90
2023-05-27T09:39:54.133Z,5.90
2023-05-27T09:42:24.019Z,6.30
2023-05-27T09:44:56.823Z,5.70
2023-05-27T09:47:27.715Z,5.70
2023-05-27T09:49:58.706Z,5.80
2023-05-27T09:52:29.538Z,6.30
2023-05-27T09:55:00.111Z,5.90
2023-05-27T09:57:32.299Z,5.90
2023-05-27T10:00:28.578Z,6.20
2023-05-27T10:03:01.430Z,6.40
2023-05-27T10:05:32.261Z,6.00
2023-05-27T10:10:35.176Z,6.20
2023-05-27T10:13:10.531Z,6.50
2023-05-27T10:15:52.129Z,6.00
2023-05-27T10:18:37.545Z,6.00
2023-05-27T10:21:08.553Z,5.90
2023-05-27T10:23:40.232Z,6.20
2023-05-27T10:26:10.747Z,5.80
2023-05-27T10:28:42.786Z,5.70
2023-05-27T10:31:20.276Z,5.90
2023-05-27T10:33:54.269Z,6.00
2023-05-27T10:36:33.554Z,5.90
2023-05-27T10:39:16.883Z,5.70
2023-05-27T10:41:51.065Z,5.20
2023-05-27T10:44:32.128Z,5.60
2023-05-27T10:47:11.609Z,5.70
2023-05-27T10:49:47.210Z,5.80
2023-05-27T10:52:19.566Z,6.90
2023-05-27T10:54:54.089Z,6.20
2023-05-27T10:57:25.923Z,6.30
2023-05-27T10:59:59.234Z,6.60
2023-05-27T11:02:34.202Z,6.60
2023-05-27T11:05:09.670Z,6.80
2023-05-27T11:07:41.835Z,6.70
2023-05-27T11:10:12.485Z,6.70
2023-05-27T11:12:50.132Z,6.70
2023-05-27T11:17:51.845Z,6.50
2023-05-27T11:20:22.878Z,6.70
2023-05-27T11:22:53.735Z,6.30
2023-05-27T11:25:22.952Z,6.50
2023-05-27T11:27:54.662Z,6.60
2023-05-27T11:30:28.865Z,6.30
2023-05-27T11:33:05.231Z,6.00
2023-05-27T11:35:36.635Z,6.40
2023-05-27T11:38:18.453Z,6.30
2023-05-27T11:40:49.223Z,6.60
2023-05-27T11:43:20.600Z,6.40
2023-05-27T11:45:51.198Z,6.10
2023-05-27T11:48:22.989Z,5.50
2023-05-27T11:50:53.536Z,6.40
2023-05-27T11:53:24.683Z,6.30
2023-05-27T11:55:54.912Z,6.20
2023-05-27T11:58:25.891Z,5.60
2023-05-27T12:00:56.387Z,6.00
2023-05-27T12:03:26.927Z,5.50
2023-05-27T12:05:56.409Z,6.10
2023-05-27T12:08:27.482Z,5.30
2023-05-27T12:10:58.633Z,6.30
2023-05-27T12:13:30.707Z,6.30
2023-05-27T12:16:01.516Z,6.20
2023-05-27T12:18:34.570Z,6.60
2023-05-27T12:21:05.888Z,6.50
2023-05-27T12:23:36.324Z,6.20
2023-05-27T12:26:06.662Z,6.00
2023-05-27T12:28:37.054Z,6.10
2023-05-27T12:31:09.288Z,6.30
2023-05-27T12:33:39.851Z,6.30
2023-05-27T12:36:12.545Z,6.30
2023-05-27T12:38:43.238Z,6.30
2023-05-27T12:41:14.165Z,6.50
2023-05-27T12:43:44.729Z,7.40
2023-05-27T12:46:16.647Z,7.20
2023-05-27T12:48:47.743Z,7.50
2023-05-27T12:51:18.264Z,7.50
2023-05-27T12:53:49.969Z,7.40
2023-05-27T12:56:20.608Z,7.30
2023-05-27T12:58:51.032Z,6.90
2023-05-27T13:01:21.325Z,7.30
2023-05-27T13:03:52.914Z,8.30
2023-05-27T13:06:23.283Z,7.20
2023-05-27T13:08:52.532Z,8.10
2023-05-27T13:11:23.593Z,9.20
2023-05-27T13:13:54.073Z,23.20
2023-05-27T13:16:24.505Z,17.50
2023-05-27T13:18:54.754Z,10.60
2023-05-27T13:21:25.309Z,10.10
2023-05-27T13:23:55.671Z,8.60
2023-05-27T13:26:27.718Z,9.00
2023-05-27T13:28:58.535Z,9.10
2023-05-27T13:31:29.090Z,8.30
2023-05-27T13:34:09.908Z,9.60
2023-05-27T13:36:51.186Z,9.50
2023-05-27T13:42:55.232Z,7.60
2023-05-27T13:45:36.327Z,7.30
2023-05-27T13:48:07.535Z,7.90
2023-05-27T13:51:05.489Z,5.20
2023-05-27T13:53:46.750Z,4.10
2023-05-27T13:56:17.305Z,4.10
2023-05-27T13:59:21.993Z,5.70
2023-05-27T14:02:11.845Z,7.50
2023-05-27T14:05:02.178Z,7.20
2023-05-27T14:07:56.261Z,6.60
2023-05-27T14:10:50.002Z,5.80
2023-05-27T14:14:15.350Z,7.30
2023-05-27T14:16:59.120Z,6.60
2023-05-27T14:19:59.468Z,7.40
2023-05-27T14:23:24.298Z,8.30
2023-05-27T14:26:38.271Z,7.70
2023-05-27T14:29:47.617Z,6.80
2023-05-27T14:33:00.605Z,6.80
2023-05-27T14:35:53.983Z,5.50
2023-05-27T14:39:10.788Z,5.20
2023-05-27T14:42:21.700Z,9.00
2023-05-27T14:45:23.091Z,10.50
2023-05-27T14:48:35.436Z,6.50
2023-05-27T14:51:30.984Z,5.70
2023-05-27T14:54:29.753Z,5.50
2023-05-27T15:29:10.966Z,5.70
2023-05-27T15:32:26.739Z,5.10
2023-05-27T15:35:37.345Z,5.90
2023-05-27T15:38:32.784Z,5.50
2023-05-27T15:42:04.588Z,5.70
2023-05-27T15:45:55.882Z,8.40
2023-05-27T15:49:12.070Z,8.90
2023-05-27T15:52:17.851Z,12.20
2023-05-27T15:55:09.259Z,9.30
2023-05-27T15:57:58.850Z,6.90
2023-05-27T16:01:05.070Z,9.20
2023-05-27T16:04:19.608Z,7.30
2023-05-27T16:07:26.320Z,6.90
2023-05-27T16:10:16.776Z,7.30
2023-05-27T16:13:12.569Z,7.30
2023-05-27T16:16:35.332Z,7.70
2023-05-27T16:19:44.409Z,7.70
2023-05-27T16:23:07.588Z,7.80
2023-05-27T16:26:39.945Z,10.10
2023-05-27T17:10:25.503Z,6.40
2023-05-27T17:13:27.384Z,8.20
2023-05-27T17:16:23.716Z,8.80
2023-05-27T17:19:45.190Z,9.10
2023-05-27T17:22:41.405Z,7.10
2023-05-27T17:26:17.406Z,6.60
2023-05-27T17:29:07.889Z,5.80
2023-05-27T17:32:04.058Z,6.70
2023-05-27T17:35:21.071Z,6.70
2023-05-27T17:42:00.039Z,6.30
2023-05-27T17:44:49.889Z,6.50
2023-05-27T17:47:53.284Z,7.00
2023-05-27T17:54:29.667Z,6.00
2023-05-27T18:00:15.968Z,7.10
2023-05-27T18:02:56.482Z,5.90
2023-05-27T18:06:10.587Z,5.50
2023-05-27T18:09:06.114Z,5.90
2023-05-27T18:11:54.722Z,6.40
2023-05-27T18:14:44.765Z,6.80
2023-05-27T18:17:47.044Z,6.40
2023-05-27T18:21:02.285Z,7.80
2023-05-27T18:24:15.514Z,7.00
2023-05-27T18:27:08.006Z,7.50
2023-05-27T18:30:23.272Z,9.80
2023-05-27T18:33:17.517Z,8.90
2023-05-27T18:36:08.335Z,6.40
2023-05-27T18:39:31.984Z,6.80
2023-05-27T18:42:34.442Z,6.60
2023-05-27T18:45:29.782Z,8.60
2023-05-27T18:48:46.570Z,7.30
2023-05-27T18:51:50.360Z,7.40
2023-05-27T19:01:46.811Z,6.80
2023-05-27T19:05:20.440Z,7.00
2023-05-27T19:08:41.890Z,6.60
2023-05-27T19:11:45.260Z,6.80
2023-05-27T19:15:20.492Z,6.00
2023-05-27T19:18:23.815Z,7.70
2023-05-27T19:21:45.133Z,7.00
2023-05-27T19:24:26.630Z,7.00
2023-05-27T19:27:17.188Z,6.20
2023-05-27T19:30:23.009Z,7.30
2023-05-27T19:33:15.902Z,7.30
2023-05-27T19:36:51.263Z,7.90
2023-05-27T19:39:51.854Z,8.20
2023-05-27T19:42:52.302Z,7.40
2023-05-27T19:46:25.571Z,10.00
2023-05-27T19:49:28.312Z,12.00
2023-05-27T19:52:50.638Z,10.40
2023-05-27T19:55:47.693Z,11.10
2023-05-27T19:59:22.564Z,13.50
2023-05-27T20:16:32.623Z,9.00
2023-05-27T20:20:23.017Z,10.70
2023-05-27T20:24:09.495Z,11.30
2023-05-27T20:27:51.382Z,14.50
2023-05-27T20:31:22.743Z,10.30
2023-05-27T20:46:58.209Z,9.10
2023-05-27T20:50:32.021Z,8.30
2023-05-27T21:09:30.499Z,8.20
2023-05-27T21:13:22.350Z,9.10
2023-05-27T21:17:15.061Z,8.50
2023-05-27T21:21:06.598Z,8.70
2023-05-27T21:25:01.098Z,10.80
2023-05-27T21:28:44.558Z,7.90
2023-05-27T21:43:41.274Z,7.70
2023-05-27T21:47:34.276Z,10.40
2023-05-27T21:51:16.315Z,11.50
2023-05-27T22:10:22.156Z,8.10
2023-05-27T22:13:55.106Z,8.80
2023-05-27T22:17:28.986Z,7.40
2023-05-27T22:21:42.480Z,6.80
2023-05-27T22:25:33.975Z,6.70
2023-05-27T22:29:30.048Z,7.00
2023-05-27T22:36:12.759Z,7.90
2023-05-27T22:39:02.734Z,7.30
2023-05-27T22:41:43.309Z,7.20
2023-05-27T22:45:13.601Z,7.70
2023-05-27T22:48:07.375Z,8.40
2023-05-27T22:51:44.626Z,7.30
2023-05-27T22:54:23.857Z,8.40
2023-05-27T22:57:46.513Z,8.10
2023-05-27T23:00:50.936Z,7.90
2023-05-27T23:03:54.539Z,9.10
2023-05-27T23:07:18.551Z,9.40
2023-05-27T23:10:20.930Z,9.50
2023-05-27T23:13:05.091Z,9.00
2023-05-27T23:16:09.500Z,8.70
2023-05-27T23:19:35.212Z,11.40
2023-05-27T23:22:41.362Z,11.30
2023-05-27T23:25:41.509Z,10.90
2023-05-27T23:28:53.790Z,10.90
2023-05-27T23:32:25.460Z,9.20
2023-05-27T23:35:45.396Z,9.70
2023-05-27T23:38:39.324Z,8.50
2023-05-27T23:42:15.072Z,8.70
